createdAt,value
2018-11-04T00:01:34.621Z,90.30
2018-11-04T00:04:08.179Z,90.80
2018-11-04T00:06:42.019Z,91.00
2018-11-04T00:09:16.315Z,90.40
2018-11-04T00:11:49.758Z,90.50
2018-11-04T00:14:23.287Z,91.00
2018-11-04T00:16:56.788Z,90.60
2018-11-04T00:19:30.282Z,90.70
2018-11-04T00:22:03.862Z,90.70
2018-11-04T00:24:37.248Z,90.80
2018-11-04T00:27:10.763Z,90.80
2018-11-04T00:29:44.549Z,90.90
2018-11-04T00:32:17.963Z,91.00
2018-11-04T00:34:51.691Z,92.20
2018-11-04T00:37:25.222Z,92.10
2018-11-04T00:39:58.960Z,91.60
2018-11-04T00:42:32.756Z,90.50
2018-11-04T00:45:07.797Z,90.70
2018-11-04T00:47:41.221Z,90.50
2018-11-04T00:50:15.644Z,89.50
2018-11-04T00:52:49.403Z,90.40
2018-11-04T00:55:22.953Z,90.00
2018-11-04T00:57:56.431Z,88.90
2018-11-04T01:00:30.052Z,90.00
2018-11-04T01:03:03.943Z,89.30
2018-11-04T01:05:37.431Z,89.50
2018-11-04T01:08:11.172Z,87.00
2018-11-04T01:10:44.555Z,89.20
2018-11-04T01:13:18.886Z,88.10
2018-11-04T01:15:52.335Z,87.00
2018-11-04T01:18:25.708Z,89.00
2018-11-04T01:20:59.327Z,89.20
2018-11-04T01:23:32.819Z,88.80
2018-11-04T01:26:06.495Z,88.60
2018-11-04T01:28:40.045Z,88.00
2018-11-04T01:31:13.441Z,88.70
2018-11-04T01:33:47.071Z,89.40
2018-11-04T01:36:20.744Z,88.50
2018-11-04T01:38:54.332Z,89.00
2018-11-04T01:41:27.812Z,89.30
2018-11-04T01:44:01.306Z,89.10
2018-11-04T01:46:35.114Z,89.30
2018-11-04T01:49:08.734Z,89.10
2018-11-04T01:51:42.274Z,89.00
2018-11-04T01:54:15.776Z,90.00
2018-11-04T01:56:49.256Z,90.00
2018-11-04T01:59:22.927Z,89.60
2018-11-04T02:01:56.429Z,89.00
2018-11-04T02:04:29.947Z,90.30
2018-11-04T02:07:03.434Z,90.00
2018-11-04T02:09:36.923Z,89.80
2018-11-04T02:12:10.552Z,89.40
2018-11-04T02:14:43.988Z,89.80
2018-11-04T02:17:17.551Z,90.40
2018-11-04T02:19:51.153Z,90.20
2018-11-04T02:22:24.619Z,90.00
2018-11-04T02:24:58.250Z,90.40
2018-11-04T02:27:31.618Z,90.60
2018-11-04T02:30:06.516Z,90.30
2018-11-04T02:32:40.302Z,90.40
2018-11-04T02:35:14.469Z,90.40
2018-11-04T02:37:47.926Z,90.30
2018-11-04T02:40:21.632Z,90.20
2018-11-04T02:42:55.290Z,90.40
2018-11-04T02:45:28.924Z,90.10
2018-11-04T02:48:02.503Z,90.90
2018-11-04T02:50:35.996Z,90.60
2018-11-04T02:53:09.371Z,90.40
2018-11-04T02:55:42.948Z,90.50
2018-11-04T02:58:16.801Z,90.60
2018-11-04T03:00:50.301Z,90.50
2018-11-04T03:03:23.757Z,90.50
2018-11-04T03:05:57.088Z,90.40
2018-11-04T03:08:30.591Z,90.20
2018-11-04T03:11:04.146Z,90.40
2018-11-04T03:13:37.767Z,90.50
2018-11-04T03:16:11.520Z,90.60
2018-11-04T03:18:45.039Z,91.10
2018-11-04T03:21:18.534Z,90.50
2018-11-04T03:23:52.071Z,91.10
2018-11-04T03:26:25.528Z,90.70
2018-11-04T03:28:58.931Z,91.20
2018-11-04T03:31:32.422Z,90.80
2018-11-04T03:34:05.899Z,90.50
2018-11-04T03:36:39.319Z,90.90
2018-11-04T03:39:13.024Z,90.40
2018-11-04T03:41:46.439Z,90.60
2018-11-04T03:44:20.010Z,90.50
2018-11-04T03:46:53.576Z,90.40
2018-11-04T03:49:26.950Z,90.40
2018-11-04T03:52:00.888Z,90.50
2018-11-04T03:54:34.298Z,90.50
2018-11-04T03:57:07.813Z,90.40
2018-11-04T03:59:41.354Z,90.40
2018-11-04T04:02:14.982Z,90.20
2018-11-04T04:04:48.685Z,90.20
2018-11-04T04:07:22.085Z,90.10
2018-11-04T04:09:55.656Z,90.60
2018-11-04T04:12:29.180Z,90.40
2018-11-04T04:15:02.749Z,90.40
2018-11-04T04:17:36.399Z,90.50
2018-11-04T04:20:09.878Z,90.70
2018-11-04T04:22:43.400Z,90.60
2018-11-04T04:25:16.897Z,90.50
2018-11-04T04:27:50.271Z,90.50
2018-11-04T04:30:23.914Z,90.40
2018-11-04T04:32:57.411Z,90.40
2018-11-04T04:35:30.869Z,90.50
2018-11-04T04:38:04.395Z,90.20
2018-11-04T04:40:37.991Z,90.40
2018-11-04T04:43:11.681Z,90.70
2018-11-04T04:45:45.296Z,91.10
2018-11-04T04:48:18.883Z,90.90
2018-11-04T04:50:52.374Z,90.80
2018-11-04T04:53:25.853Z,90.60
2018-11-04T04:55:59.645Z,90.50
2018-11-04T04:58:33.075Z,90.60
2018-11-04T05:01:06.494Z,90.50
2018-11-04T05:03:40.171Z,90.50
2018-11-04T05:06:13.779Z,90.80
2018-11-04T05:08:47.430Z,90.90
2018-11-04T05:11:20.975Z,90.90
2018-11-04T05:13:54.635Z,90.90
2018-11-04T05:16:28.175Z,91.00
2018-11-04T05:19:01.594Z,91.10
2018-11-04T05:21:42.296Z,91.20
2018-11-04T05:24:16.434Z,91.10
2018-11-04T05:26:50.055Z,91.30
2018-11-04T05:29:23.588Z,91.60
2018-11-04T05:31:57.080Z,91.00
2018-11-04T05:34:30.629Z,91.10
2018-11-04T05:37:04.503Z,91.20
2018-11-04T05:39:38.140Z,91.30
2018-11-04T05:42:11.741Z,91.40
2018-11-04T05:44:45.341Z,91.40
2018-11-04T05:47:18.863Z,91.50
2018-11-04T05:49:52.327Z,91.50
2018-11-04T05:52:25.964Z,91.70
2018-11-04T05:54:59.504Z,91.70
2018-11-04T05:57:33.134Z,92.10
2018-11-04T06:00:11.200Z,91.80
2018-11-04T06:02:44.771Z,91.80
2018-11-04T06:05:18.371Z,91.80
2018-11-04T06:07:51.792Z,91.80
2018-11-04T06:10:25.372Z,91.90
2018-11-04T06:12:58.845Z,91.70
2018-11-04T06:15:32.470Z,91.90
2018-11-04T06:18:06.040Z,91.60
2018-11-04T06:20:39.680Z,91.40
2018-11-04T06:23:13.419Z,91.30
2018-11-04T06:25:47.000Z,91.40
2018-11-04T06:28:20.479Z,91.40
2018-11-04T06:30:53.869Z,91.60
2018-11-04T06:33:27.362Z,91.60
2018-11-04T06:36:00.722Z,91.60
2018-11-04T06:38:34.350Z,91.30
2018-11-04T06:41:08.145Z,91.10
2018-11-04T06:43:41.503Z,91.00
2018-11-04T06:46:15.699Z,90.70
2018-11-04T06:48:49.184Z,90.60
2018-11-04T06:51:22.745Z,90.90
2018-11-04T06:53:56.380Z,90.80
2018-11-04T06:56:29.724Z,90.60
2018-11-04T06:59:03.152Z,91.00
2018-11-04T07:01:36.760Z,90.90
2018-11-04T07:04:21.715Z,90.80
2018-11-04T07:06:55.210Z,90.90
2018-11-04T07:09:28.683Z,91.00
2018-11-04T07:12:02.270Z,91.30
2018-11-04T07:14:35.892Z,91.00
2018-11-04T07:17:09.502Z,90.90
2018-11-04T07:19:43.333Z,90.70
2018-11-04T07:22:17.156Z,90.70
2018-11-04T07:24:50.722Z,91.30
2018-11-04T07:27:24.281Z,91.10
2018-11-04T07:32:33.442Z,91.20
2018-11-04T07:35:07.827Z,90.80
2018-11-04T07:37:41.375Z,91.20
2018-11-04T07:40:14.974Z,90.70
2018-11-04T07:42:48.356Z,91.00
2018-11-04T07:45:21.989Z,90.80
2018-11-04T07:47:55.542Z,91.00
2018-11-04T07:50:29.034Z,90.80
2018-11-04T07:53:02.554Z,90.90
2018-11-04T07:55:36.016Z,91.00
2018-11-04T07:58:09.662Z,91.00
2018-11-04T08:00:43.321Z,90.80
2018-11-04T08:03:17.025Z,90.70
2018-11-04T08:05:50.523Z,91.10
2018-11-04T08:08:24.260Z,91.20
2018-11-04T08:10:57.898Z,90.80
2018-11-04T08:13:31.467Z,91.10
2018-11-04T08:16:05.061Z,90.50
2018-11-04T08:18:38.552Z,91.10
2018-11-04T08:21:11.992Z,90.80
2018-11-04T08:23:45.548Z,90.70
2018-11-04T08:26:18.895Z,91.10
2018-11-04T08:28:52.384Z,91.00
2018-11-04T08:31:25.917Z,90.70
2018-11-04T08:33:59.440Z,90.40
2018-11-04T08:36:32.968Z,90.40
2018-11-04T08:39:07.379Z,90.40
2018-11-04T08:41:40.860Z,90.10
2018-11-04T08:44:14.626Z,90.20
2018-11-04T08:46:48.051Z,90.10
2018-11-04T08:49:21.782Z,90.60
2018-11-04T08:51:55.280Z,90.50
2018-11-04T08:54:28.758Z,90.30
2018-11-04T08:57:02.304Z,90.40
2018-11-04T08:59:35.948Z,90.40
2018-11-04T09:02:09.443Z,90.50
2018-11-04T09:04:43.020Z,90.70
2018-11-04T09:07:16.549Z,90.40
2018-11-04T09:09:50.380Z,90.40
2018-11-04T09:12:23.803Z,90.70
2018-11-04T09:14:57.343Z,90.80
2018-11-04T09:17:30.906Z,90.90
2018-11-04T09:20:06.359Z,90.70
2018-11-04T09:22:40.647Z,90.60
2018-11-04T09:25:14.334Z,90.90
2018-11-04T09:27:48.040Z,90.90
2018-11-04T09:30:21.509Z,90.90
2018-11-04T09:32:55.136Z,91.00
2018-11-04T09:35:29.127Z,91.20
2018-11-04T09:38:02.375Z,91.40
2018-11-04T09:40:35.913Z,91.20
2018-11-04T09:43:09.827Z,91.10
2018-11-04T09:45:43.483Z,91.10
2018-11-04T09:48:17.085Z,91.20
2018-11-04T09:50:50.723Z,91.10
2018-11-04T09:53:24.330Z,91.10
2018-11-04T09:55:57.948Z,91.10
2018-11-04T09:58:31.601Z,91.00
2018-11-04T10:01:05.633Z,91.10
2018-11-04T10:03:39.268Z,90.80
2018-11-04T10:06:12.841Z,91.10
2018-11-04T10:08:46.649Z,91.10
2018-11-04T10:11:20.398Z,91.40
2018-11-04T10:13:53.978Z,91.20
2018-11-04T10:16:27.704Z,91.10
2018-11-04T10:19:01.237Z,91.00
2018-11-04T10:21:34.963Z,91.40
2018-11-04T10:24:08.666Z,91.40
2018-11-04T10:29:22.540Z,91.50
2018-11-04T10:31:56.329Z,91.40
2018-11-04T10:34:29.908Z,91.00
2018-11-04T10:37:03.521Z,90.80
2018-11-04T10:39:36.922Z,90.90
2018-11-04T10:42:10.620Z,91.00
2018-11-04T10:44:44.434Z,90.90
2018-11-04T10:47:18.336Z,91.00
2018-11-04T10:49:52.215Z,91.20
2018-11-04T10:52:26.277Z,91.20
2018-11-04T10:54:59.935Z,91.90
2018-11-04T10:57:33.636Z,91.70
2018-11-04T11:00:15.192Z,91.60
2018-11-04T11:02:48.765Z,91.40
2018-11-04T11:05:22.255Z,91.60
2018-11-04T11:07:55.789Z,91.60
2018-11-04T11:10:29.325Z,91.60
2018-11-04T11:13:02.749Z,91.40
2018-11-04T11:15:36.419Z,91.50
2018-11-04T11:18:09.949Z,91.50
2018-11-04T11:20:43.395Z,91.30
2018-11-04T11:23:17.110Z,91.40
2018-11-04T11:25:50.485Z,91.40
2018-11-04T11:28:24.231Z,91.40
2018-11-04T11:30:57.650Z,91.30
2018-11-04T11:33:30.975Z,91.40
2018-11-04T11:36:04.965Z,91.20
2018-11-04T11:38:38.445Z,91.10
2018-11-04T11:41:11.935Z,91.20
2018-11-04T11:43:45.406Z,91.30
2018-11-04T11:46:18.957Z,91.30
2018-11-04T11:48:52.420Z,91.20
2018-11-04T11:51:25.997Z,91.20
2018-11-04T11:53:59.747Z,91.20
2018-11-04T11:56:33.243Z,91.10
2018-11-04T11:59:06.717Z,91.20
2018-11-04T12:01:40.293Z,91.10
2018-11-04T12:04:13.777Z,91.10
2018-11-04T12:06:47.368Z,90.90
2018-11-04T12:09:20.865Z,90.80
2018-11-04T12:11:54.302Z,90.80
2018-11-04T12:14:27.751Z,90.30
2018-11-04T12:17:01.479Z,90.20
2018-11-04T12:19:34.909Z,90.20
2018-11-04T12:22:08.331Z,90.10
2018-11-04T12:24:42.602Z,90.20
2018-11-04T12:27:16.201Z,90.00
2018-11-04T12:29:49.754Z,90.10
2018-11-04T12:32:23.324Z,90.10
2018-11-04T12:34:56.890Z,90.10
2018-11-04T12:37:30.384Z,89.90
2018-11-04T12:40:05.596Z,89.60
2018-11-04T12:42:39.193Z,89.60
2018-11-04T12:45:13.547Z,89.90
2018-11-04T12:47:47.047Z,89.60
2018-11-04T12:50:20.569Z,89.50
2018-11-04T12:52:54.074Z,89.30
2018-11-04T12:55:27.771Z,89.20
2018-11-04T12:58:01.208Z,88.80
2018-11-04T13:00:34.611Z,89.00
2018-11-04T13:03:07.962Z,89.00
2018-11-04T13:05:41.446Z,89.20
2018-11-04T13:08:15.092Z,89.20
2018-11-04T13:10:48.621Z,89.20
2018-11-04T13:13:22.197Z,89.30
2018-11-04T13:15:55.617Z,89.50
2018-11-04T13:18:29.102Z,89.50
2018-11-04T13:21:02.708Z,89.90
2018-11-04T13:23:36.280Z,90.10
2018-11-04T13:26:09.755Z,90.30
2018-11-04T13:28:43.348Z,90.40
2018-11-04T13:31:16.877Z,90.60
2018-11-04T13:33:50.336Z,90.30
2018-11-04T13:36:23.920Z,90.20
2018-11-04T13:38:57.562Z,90.40
2018-11-04T13:41:31.148Z,90.30
2018-11-04T13:44:04.959Z,90.30
2018-11-04T13:46:38.540Z,90.20
2018-11-04T13:49:12.748Z,90.10
2018-11-04T13:51:46.374Z,90.20
2018-11-04T13:54:19.945Z,90.20
2018-11-04T13:56:53.471Z,90.30
2018-11-04T13:59:26.899Z,90.30
2018-11-04T14:02:00.420Z,90.40
2018-11-04T14:04:33.994Z,90.30
2018-11-04T14:07:07.852Z,90.30
2018-11-04T14:09:41.384Z,90.40
2018-11-04T14:12:15.034Z,90.40
2018-11-04T14:14:48.523Z,90.40
2018-11-04T14:17:22.036Z,90.40
2018-11-04T14:19:55.821Z,90.60
2018-11-04T14:22:29.120Z,90.50
2018-11-04T14:25:02.537Z,90.50
2018-11-04T14:27:36.290Z,90.50
2018-11-04T14:30:11.763Z,90.40
2018-11-04T14:32:45.184Z,90.60
2018-11-04T14:35:18.758Z,90.60
2018-11-04T14:37:52.359Z,90.60
2018-11-04T14:40:25.761Z,90.60
2018-11-04T14:42:59.326Z,90.50
2018-11-04T14:45:32.809Z,90.60
2018-11-04T14:48:06.283Z,90.60
2018-11-04T14:50:39.759Z,90.70
2018-11-04T14:53:13.322Z,90.70
2018-11-04T14:55:46.852Z,90.70
2018-11-04T14:58:20.475Z,90.40
2018-11-04T15:00:54.206Z,90.80
2018-11-04T15:03:27.753Z,90.80
2018-11-04T15:06:01.375Z,90.80
2018-11-04T15:08:35.306Z,90.90
2018-11-04T15:11:09.004Z,90.90
2018-11-04T15:13:42.695Z,91.00
2018-11-04T15:16:16.799Z,91.00
2018-11-04T15:18:50.439Z,91.00
2018-11-04T15:21:23.975Z,91.10
2018-11-04T15:23:57.646Z,91.00
2018-11-04T15:26:31.200Z,91.20
2018-11-04T15:29:04.946Z,91.30
2018-11-04T15:31:38.540Z,91.30
2018-11-04T15:34:12.150Z,91.40
2018-11-04T15:36:45.615Z,91.40
2018-11-04T15:39:19.140Z,91.30
2018-11-04T15:41:52.625Z,91.40
2018-11-04T15:44:26.392Z,91.30
2018-11-04T15:47:00.037Z,91.30
2018-11-04T15:49:33.739Z,91.30
2018-11-04T15:52:07.121Z,91.30
2018-11-04T15:54:40.844Z,91.30
2018-11-04T15:57:16.267Z,91.30
2018-11-04T15:59:49.568Z,91.70
2018-11-04T16:02:23.171Z,91.30
2018-11-04T16:04:56.814Z,91.30
2018-11-04T16:07:30.309Z,91.30
2018-11-04T16:10:04.763Z,91.30
2018-11-04T16:12:38.605Z,91.30
2018-11-04T16:15:13.140Z,91.40
2018-11-04T16:17:46.824Z,91.40
2018-11-04T16:20:20.255Z,91.50
2018-11-04T16:22:53.652Z,91.30
2018-11-04T16:25:27.345Z,91.30
2018-11-04T16:28:01.017Z,91.50
2018-11-04T16:30:34.601Z,91.50
2018-11-04T16:33:08.315Z,91.50
2018-11-04T16:35:41.934Z,91.50
2018-11-04T16:38:15.706Z,91.50
2018-11-04T16:40:49.282Z,91.60
2018-11-04T16:43:22.989Z,91.60
2018-11-04T16:45:56.560Z,91.60
2018-11-04T16:48:30.056Z,91.50
2018-11-04T16:51:03.685Z,91.60
2018-11-04T16:53:37.183Z,91.70
2018-11-04T16:56:10.826Z,91.70
2018-11-04T16:58:44.240Z,91.80
2018-11-04T17:01:17.909Z,91.90
2018-11-04T17:03:51.408Z,91.90
2018-11-04T17:06:25.222Z,91.90
2018-11-04T17:08:58.785Z,91.90
2018-11-04T17:11:32.350Z,91.90
2018-11-04T17:14:06.501Z,91.90
2018-11-04T17:16:40.172Z,91.90
2018-11-04T17:19:13.705Z,92.00
2018-11-04T17:21:47.280Z,92.10
2018-11-04T17:24:20.879Z,92.10
2018-11-04T17:26:54.581Z,92.30
2018-11-04T17:29:28.010Z,92.20
2018-11-04T17:32:01.908Z,92.30
2018-11-04T17:34:35.597Z,92.20
2018-11-04T17:37:09.717Z,92.40
2018-11-04T17:39:43.260Z,92.30
2018-11-04T17:42:16.860Z,92.50
2018-11-04T17:44:50.497Z,92.50
2018-11-04T17:47:24.195Z,92.70
2018-11-04T17:49:57.896Z,92.90
2018-11-04T17:52:31.654Z,92.90
2018-11-04T17:55:05.380Z,92.90
2018-11-04T17:57:39.229Z,92.90
2018-11-04T18:00:14.267Z,93.10
2018-11-04T18:02:47.808Z,93.00
2018-11-04T18:05:21.528Z,93.30
2018-11-04T18:07:55.250Z,93.30
2018-11-04T18:10:28.769Z,93.30
2018-11-04T18:13:02.388Z,93.30
2018-11-04T18:15:35.787Z,93.20
2018-11-04T18:18:09.320Z,93.00
2018-11-04T18:20:42.940Z,93.00
2018-11-04T18:23:16.588Z,93.00
2018-11-04T18:25:50.287Z,93.00
2018-11-04T18:28:23.779Z,93.00
2018-11-04T18:30:57.238Z,93.00
2018-11-04T18:33:30.765Z,93.10
2018-11-04T18:36:04.557Z,93.20
2018-11-04T18:38:38.463Z,93.10
2018-11-04T18:41:12.184Z,93.00
2018-11-04T18:43:45.775Z,93.10
2018-11-04T18:48:55.140Z,93.00
2018-11-04T18:51:28.772Z,93.10
2018-11-04T18:54:02.376Z,93.20
2018-11-04T18:56:35.765Z,93.40
2018-11-04T18:59:09.463Z,93.30
2018-11-04T19:01:43.146Z,93.40
2018-11-04T19:04:16.602Z,93.10
2018-11-04T19:06:50.062Z,93.10
2018-11-04T19:10:26.965Z,93.10
2018-11-04T19:13:00.415Z,93.20
2018-11-04T19:15:34.121Z,93.40
2018-11-04T19:18:07.851Z,93.30
2018-11-04T19:20:41.596Z,93.60
2018-11-04T19:23:21.755Z,93.80
2018-11-04T19:25:55.113Z,94.00
2018-11-04T19:28:28.865Z,93.90
2018-11-04T19:31:02.512Z,93.90
2018-11-04T19:33:36.078Z,93.80
2018-11-04T19:36:09.692Z,93.80
2018-11-04T19:38:43.246Z,93.90
2018-11-04T19:41:16.704Z,93.90
2018-11-04T19:43:50.345Z,94.10
2018-11-04T19:46:24.452Z,93.90
2018-11-04T19:48:57.859Z,93.90
2018-11-04T19:51:31.166Z,93.90
2018-11-04T19:54:05.574Z,94.10
2018-11-04T19:56:40.047Z,93.90
2018-11-04T19:59:14.216Z,93.80
2018-11-04T20:01:47.934Z,93.80
2018-11-04T20:04:21.388Z,93.80
2018-11-04T20:06:54.965Z,93.90
2018-11-04T20:09:28.412Z,93.80
2018-11-04T20:12:01.852Z,94.00
2018-11-04T20:14:35.318Z,94.20
2018-11-04T20:17:09.289Z,94.40
2018-11-04T20:19:49.023Z,94.30
2018-11-04T20:22:23.321Z,94.40
2018-11-04T20:25:02.959Z,94.50
2018-11-04T20:27:36.657Z,94.30
2018-11-04T20:30:11.437Z,94.00
2018-11-04T20:32:50.750Z,94.10
2018-11-04T20:35:25.783Z,94.30
2018-11-04T20:37:59.458Z,94.30
2018-11-04T20:40:38.648Z,94.20
2018-11-04T20:43:12.064Z,94.50
2018-11-04T20:45:45.661Z,94.40
2018-11-04T20:48:24.987Z,94.50
2018-11-04T20:51:03.476Z,94.50
2018-11-04T20:53:36.969Z,94.40
2018-11-04T20:56:16.306Z,94.10
2018-11-04T20:58:49.928Z,93.90
2018-11-04T21:01:23.655Z,94.20
2018-11-04T21:03:57.373Z,94.40
2018-11-04T21:06:30.812Z,94.40
2018-11-04T21:09:07.137Z,94.50
2018-11-04T21:11:40.703Z,94.60
2018-11-04T21:14:14.165Z,94.80
2018-11-04T21:16:48.011Z,94.70
2018-11-04T21:19:23.640Z,95.00
2018-11-04T21:21:57.993Z,95.00
2018-11-04T21:24:31.644Z,94.80
2018-11-04T21:27:05.480Z,94.80
2018-11-04T21:29:39.262Z,94.70
2018-11-04T21:32:12.707Z,94.80
2018-11-04T21:34:46.567Z,94.80
2018-11-04T21:37:20.085Z,95.00
2018-11-04T21:39:54.020Z,95.10
2018-11-04T21:42:27.731Z,95.00
2018-11-04T21:45:01.386Z,94.90
2018-11-04T21:47:42.684Z,94.90
2018-11-04T21:50:16.452Z,95.00
2018-11-04T21:52:50.116Z,94.70
2018-11-04T21:55:23.729Z,94.80
2018-11-04T21:57:57.314Z,94.60
2018-11-04T22:00:30.903Z,94.60
2018-11-04T22:03:04.489Z,94.80
2018-11-04T22:05:37.941Z,94.90
2018-11-04T22:08:11.512Z,93.70
2018-11-04T22:10:46.204Z,93.30
2018-11-04T22:13:19.712Z,92.60
2018-11-04T22:15:53.427Z,93.00
2018-11-04T22:18:27.197Z,92.80
2018-11-04T22:21:00.790Z,92.60
2018-11-04T22:23:34.200Z,93.00
2018-11-04T22:26:08.043Z,93.60
2018-11-04T22:28:41.706Z,93.90
2018-11-04T22:31:15.779Z,94.00
2018-11-04T22:33:49.411Z,94.10
2018-11-04T22:36:24.016Z,94.10
2018-11-04T22:38:57.560Z,94.40
2018-11-04T22:41:31.211Z,94.50
2018-11-04T22:44:05.081Z,94.50
2018-11-04T22:46:39.235Z,94.70
2018-11-04T22:49:12.830Z,94.50
2018-11-04T22:51:46.330Z,94.60
2018-11-04T22:54:20.451Z,94.50
2018-11-04T22:56:54.043Z,94.70
2018-11-04T22:59:28.363Z,94.70
2018-11-04T23:02:02.102Z,94.80
2018-11-04T23:04:41.502Z,94.90
2018-11-04T23:07:15.103Z,94.90
2018-11-04T23:09:48.923Z,94.70
2018-11-04T23:12:22.475Z,94.90
2018-11-04T23:14:56.048Z,94.90
2018-11-04T23:17:29.658Z,95.00
2018-11-04T23:20:04.496Z,95.00
2018-11-04T23:22:38.036Z,94.90
2018-11-04T23:25:12.602Z,94.80
2018-11-04T23:27:46.223Z,94.80
2018-11-04T23:30:19.845Z,94.80
2018-11-04T23:32:53.502Z,94.90
2018-11-04T23:35:27.176Z,95.00
2018-11-04T23:38:00.570Z,94.90
2018-11-04T23:40:34.118Z,94.70
2018-11-04T23:43:07.841Z,94.80
2018-11-04T23:45:41.517Z,94.70
2018-11-04T23:48:15.047Z,94.80
2018-11-04T23:50:48.727Z,94.80
2018-11-04T23:53:22.379Z,94.70
2018-11-04T23:58:36.336Z,94.80
